Time;durP1;ratioP1;P1;durP2;ratioP2;P2;SDS_P1;SDS_P2;PMS_P1;PMS_P2;Temp;Humidity;BMP_temperature;BMP_pressure;BME280_temperature;BME280_humidity;BME280_pressure;Samples;Min_cycle;Max_cycle;Signal;HPM_P1;HPM_P2
2023/02/25 00:03:14;;;;;;;15.87;14.63;;;8.30;99.90;;;;;;10503671;28;20240;-81
2023/02/25 00:08:16;;;;;;;16.30;15.10;;;8.30;99.90;;;;;;10474285;28;20612;-81
2023/02/25 00:13:18;;;;;;;16.53;15.13;;;8.30;99.90;;;;;;10515707;28;20290;-81
2023/02/25 00:18:22;;;;;;;16.73;15.43;;;8.30;99.90;;;;;;10498046;28;20214;-81
2023/02/25 00:23:24;;;;;;;16.70;15.30;;;8.30;99.90;;;;;;10496460;28;20221;-81
2023/02/25 00:28:27;;;;;;;17.53;16.07;;;8.30;99.90;;;;;;10513532;28;20217;-81
2023/02/25 00:33:33;;;;;;;16.47;15.10;;;8.20;99.90;;;;;;10493298;28;20229;-80
2023/02/25 00:38:36;;;;;;;17.00;15.70;;;8.20;99.90;;;;;;10496337;28;20213;-80
2023/02/25 00:43:41;;;;;;;16.50;15.17;;;8.20;99.90;;;;;;10466531;28;20200;-80
2023/02/25 00:48:46;;;;;;;17.47;16.03;;;8.20;99.90;;;;;;10462057;28;20218;-82
2023/02/25 00:53:48;;;;;;;18.67;17.17;;;8.20;99.90;;;;;;10483190;28;20219;-80
2023/02/25 00:58:51;;;;;;;17.27;15.90;;;8.20;99.90;;;;;;10482089;28;20242;-81
2023/02/25 01:03:57;;;;;;;16.97;15.47;;;8.20;99.90;;;;;;10479002;28;20234;-82
2023/02/25 01:08:59;;;;;;;15.97;14.67;;;8.20;99.90;;;;;;10491477;28;20210;-81
2023/02/25 01:14:05;;;;;;;17.30;15.57;;;8.20;99.90;;;;;;10514277;28;20199;-82
2023/02/25 01:19:12;;;;;;;15.60;14.30;;;8.20;99.90;;;;;;10477711;28;20229;-82
2023/02/25 01:24:16;;;;;;;13.00;12.00;;;8.20;99.90;;;;;;10513598;28;20567;-81
2023/02/25 01:29:21;;;;;;;11.97;11.10;;;8.30;99.90;;;;;;10497587;28;20222;-82
2023/02/25 01:34:25;;;;;;;11.80;11.00;;;8.20;99.90;;;;;;10477148;28;20197;-80
2023/02/25 01:39:28;;;;;;;11.80;10.90;;;8.20;99.90;;;;;;10513045;28;20314;-80
2023/02/25 01:44:32;;;;;;;11.80;10.63;;;8.20;99.90;;;;;;10477819;28;20201;-81
2023/02/25 01:49:40;;;;;;;11.60;10.60;;;8.20;99.90;;;;;;10494934;28;20210;-81
2023/02/25 01:54:44;;;;;;;11.30;10.30;;;8.30;99.90;;;;;;10499445;28;20192;-81
2023/02/25 01:59:48;;;;;;;10.30;9.40;;;8.30;99.90;;;;;;10473653;28;20228;-81
2023/02/25 02:04:53;;;;;;;8.60;8.00;;;8.30;99.90;;;;;;10445513;28;20198;-81
2023/02/25 02:09:56;;;;;;;8.83;8.07;;;8.30;99.90;;;;;;10480590;28;20200;-80
2023/02/25 02:15:00;;;;;;;8.00;7.30;;;8.30;99.90;;;;;;10462318;28;20207;-80
2023/02/25 02:20:11;;;;;;;11.17;7.83;;;8.30;99.90;;;;;;10430214;28;20592;-78
2023/02/25 02:25:41;;;;;;;7.27;6.77;;;8.40;99.90;;;;;;10492463;22;20221;-82
2023/02/25 02:30:57;;;;;;;7.23;6.53;;;8.40;99.90;;;;;;10467959;28;20197;-80
2023/02/25 02:36:07;;;;;;;7.20;6.50;;;8.40;99.90;;;;;;10460836;28;20275;-81
2023/02/25 02:41:17;;;;;;;6.50;6.00;;;8.40;99.90;;;;;;10460881;28;20226;-81
2023/02/25 02:46:23;;;;;;;6.27;5.67;;;8.40;99.90;;;;;;10431812;28;20223;-79
2023/02/25 02:51:31;;;;;;;5.60;5.20;;;8.50;99.90;;;;;;10447934;28;20278;-81
2023/02/25 02:56:35;;;;;;;6.53;6.03;;;8.50;99.90;;;;;;10445171;28;20314;-81
2023/02/25 03:01:42;;;;;;;6.93;6.33;;;8.50;99.90;;;;;;10430648;28;20223;-81
2023/02/25 03:06:49;;;;;;;10.93;6.20;;;8.50;99.90;;;;;;10440508;28;20707;-81
2023/02/25 03:11:51;;;;;;;6.93;6.17;;;8.60;99.90;;;;;;10425369;28;20194;-81
2023/02/25 03:16:59;;;;;;;6.90;6.17;;;8.50;99.90;;;;;;10443637;28;20564;-81
2023/02/25 03:22:07;;;;;;;9.17;6.40;;;8.50;99.90;;;;;;10427569;28;20205;-80
2023/02/25 03:27:28;;;;;;;6.63;5.90;;;8.50;99.90;;;;;;10428360;28;20237;-81
2023/02/25 03:32:38;;;;;;;6.80;5.77;;;8.40;99.90;;;;;;10436424;28;20197;-80
2023/02/25 03:37:44;;;;;;;6.60;6.10;;;8.50;99.90;;;;;;10437476;28;20213;-82
2023/02/25 03:42:50;;;;;;;9.10;5.97;;;8.50;99.90;;;;;;10438542;28;20221;-80
2023/02/25 03:47:54;;;;;;;5.60;5.10;;;8.50;99.90;;;;;;10456327;28;20225;-82
2023/02/25 03:52:58;;;;;;;6.93;5.30;;;8.50;99.90;;;;;;10458718;28;20202;-84
2023/02/25 03:58:26;;;;;;;6.20;4.50;;;8.40;99.90;;;;;;10417139;28;20428;-82
2023/02/25 04:03:28;;;;;;;5.53;4.00;;;8.30;99.90;;;;;;10434240;28;20281;-81
2023/02/25 04:08:32;;;;;;;4.77;4.40;;;8.30;99.70;;;;;;10449935;28;20258;-83
2023/02/25 04:13:34;;;;;;;4.30;3.90;;;8.20;99.50;;;;;;10433334;28;20223;-80
2023/02/25 04:18:36;;;;;;;4.70;3.20;;;8.20;99.90;;;;;;10434633;28;20218;-81
2023/02/25 04:23:41;;;;;;;4.90;4.50;;;8.20;99.50;;;;;;10439529;28;20599;-82
2023/02/25 04:28:43;;;;;;;4.13;3.80;;;8.20;99.80;;;;;;10439247;28;20254;-83
2023/02/25 04:33:48;;;;;;;4.47;3.63;;;8.20;99.00;;;;;;10455527;28;20194;-83
2023/02/25 04:38:52;;;;;;;3.70;3.40;;;8.20;99.20;;;;;;10404870;28;20601;-82
2023/02/25 04:43:54;;;;;;;7.33;3.10;;;8.20;98.90;;;;;;10459542;28;20201;-86
2023/02/25 04:48:56;;;;;;;4.83;3.63;;;8.20;98.30;;;;;;10471359;28;20310;-82
2023/02/25 04:54:00;;;;;;;4.40;3.40;;;8.20;98.90;;;;;;10463755;28;20194;-81
2023/02/25 04:59:02;;;;;;;5.60;3.70;;;8.20;98.50;;;;;;10471757;28;20220;-81
2023/02/25 05:04:05;;;;;;;5.73;3.60;;;8.20;97.70;;;;;;10455992;28;20208;-83
2023/02/25 05:09:08;;;;;;;5.80;3.00;;;8.20;98.30;;;;;;10455647;28;20214;-82
2023/02/25 05:14:10;;;;;;;6.47;3.40;;;8.20;98.00;;;;;;10450797;28;20508;-83
2023/02/25 05:19:16;;;;;;;3.17;2.87;;;8.20;97.90;;;;;;10438515;28;20220;-83
2023/02/25 05:24:22;;;;;;;4.70;3.10;;;8.20;97.60;;;;;;10438540;28;20567;-82
2023/02/25 05:29:24;;;;;;;6.53;2.67;;;8.20;97.40;;;;;;10441340;28;20239;-81
2023/02/25 05:34:26;;;;;;;3.50;3.20;;;8.20;96.40;;;;;;10483363;28;20271;-83
2023/02/25 05:39:30;;;;;;;3.20;3.00;;;8.20;97.30;;;;;;10437656;28;20229;-82
2023/02/25 05:44:32;;;;;;;2.80;2.53;;;8.20;97.00;;;;;;10451711;28;20689;-80
2023/02/25 05:49:34;;;;;;;3.63;2.57;;;8.20;96.10;;;;;;10447786;28;20218;-81
2023/02/25 05:54:37;;;;;;;6.03;2.60;;;8.10;95.80;;;;;;10466380;28;20200;-83
2023/02/25 05:59:39;;;;;;;4.10;2.40;;;8.20;96.50;;;;;;10433706;28;20313;-84
2023/02/25 06:04:41;;;;;;;3.70;2.87;;;8.10;95.50;;;;;;10434571;28;20727;-82
2023/02/25 06:09:45;;;;;;;3.70;2.10;;;8.10;96.30;;;;;;10436666;28;20215;-82
2023/02/25 06:14:47;;;;;;;3.00;2.23;;;8.20;96.20;;;;;;10435960;28;20209;-81
2023/02/25 06:19:50;;;;;;;2.70;2.20;;;8.20;95.90;;;;;;10434816;28;20233;-80
2023/02/25 06:24:53;;;;;;;3.97;2.57;;;8.30;95.90;;;;;;10432760;28;20770;-82
2023/02/25 06:29:55;;;;;;;2.60;2.17;;;8.30;95.90;;;;;;10448855;28;20224;-83
2023/02/25 06:34:57;;;;;;;2.40;2.20;;;8.30;95.60;;;;;;10442520;28;20272;-82
2023/02/25 06:40:01;;;;;;;2.30;2.07;;;8.30;96.00;;;;;;10443277;28;20213;-83
2023/02/25 06:45:03;;;;;;;4.87;2.63;;;8.40;96.30;;;;;;10429889;28;20270;-83
2023/02/25 06:50:06;;;;;;;4.23;2.53;;;8.40;96.00;;;;;;10466913;28;20217;-83
2023/02/25 06:55:10;;;;;;;4.47;2.17;;;8.40;96.50;;;;;;10454828;28;20199;-83
2023/02/25 07:00:13;;;;;;;2.83;2.50;;;8.30;95.50;;;;;;10467513;28;20633;-83
2023/02/25 07:05:15;;;;;;;8.60;2.57;;;8.30;96.30;;;;;;10429913;28;20198;-83
2023/02/25 07:10:19;;;;;;;4.37;2.20;;;8.30;95.90;;;;;;10457476;28;20220;-83
2023/02/25 07:15:22;;;;;;;2.53;2.33;;;8.20;95.70;;;;;;10434081;28;20236;-83
2023/02/25 07:20:24;;;;;;;4.80;2.50;;;8.30;96.30;;;;;;10451594;28;20243;-83
2023/02/25 07:25:27;;;;;;;2.37;2.17;;;8.30;95.90;;;;;;10472197;28;20191;-83
2023/02/25 07:30:29;;;;;;;3.60;2.30;;;8.30;96.30;;;;;;10439178;28;20209;-83
2023/02/25 07:35:33;;;;;;;4.23;2.87;;;8.40;95.80;;;;;;10454894;28;20246;-83
2023/02/25 07:40:37;;;;;;;4.90;2.40;;;8.40;96.20;;;;;;10456538;28;20232;-83
2023/02/25 07:45:39;;;;;;;3.47;2.10;;;8.50;96.00;;;;;;10439242;28;20282;-83
2023/02/25 07:50:43;;;;;;;2.93;2.00;;;8.60;95.70;;;;;;10463165;28;20196;-84
2023/02/25 07:55:46;;;;;;;5.23;2.63;;;8.70;95.10;;;;;;10453010;28;20305;-84
2023/02/25 08:00:49;;;;;;;3.83;2.80;;;8.80;94.40;;;;;;10472428;28;20220;-83
2023/02/25 08:05:53;;;;;;;6.00;2.53;;;8.90;94.10;;;;;;10452446;28;20224;-83
2023/02/25 08:10:56;;;;;;;2.20;2.00;;;8.80;93.00;;;;;;10439227;28;20208;-83
2023/02/25 08:15:58;;;;;;;3.83;2.53;;;8.80;91.60;;;;;;10455213;28;20217;-84
2023/02/25 08:21:00;;;;;;;3.67;2.43;;;8.80;91.50;;;;;;10457302;28;20240;-84
2023/02/25 08:26:04;;;;;;;1.93;1.70;;;8.80;93.50;;;;;;10487025;22;20243;-79
2023/02/25 08:31:10;;;;;;;2.40;2.20;;;8.80;90.90;;;;;;10460719;28;20287;-78
2023/02/25 08:36:19;;;;;;;2.40;2.20;;;8.70;92.00;;;;;;10464767;28;20314;-77
2023/02/25 08:41:25;;;;;;;6.63;2.50;;;8.80;91.40;;;;;;10469209;28;20606;-78
2023/02/25 08:46:29;;;;;;;5.07;2.80;;;8.90;91.40;;;;;;10500321;28;20222;-79
2023/02/25 08:51:35;;;;;;;4.67;2.50;;;9.00;90.20;;;;;;10435158;28;20612;-78
2023/02/25 08:56:43;;;;;;;2.87;2.60;;;8.90;91.20;;;;;;10430683;28;20705;-77
2023/02/25 09:01:45;;;;;;;4.30;2.37;;;8.80;90.20;;;;;;10449517;28;20577;-78
2023/02/25 09:06:47;;;;;;;3.80;2.10;;;8.80;91.00;;;;;;10443133;28;20223;-77
2023/02/25 09:11:51;;;;;;;2.50;2.20;;;8.70;91.00;;;;;;10479915;28;20203;-78
2023/02/25 09:16:53;;;;;;;3.27;2.50;;;8.70;91.30;;;;;;10467251;28;20218;-78
2023/02/25 09:21:55;;;;;;;3.30;2.77;;;8.80;91.20;;;;;;10434643;28;20265;-78
2023/02/25 09:26:59;;;;;;;2.80;2.60;;;9.00;90.70;;;;;;10464227;28;20321;-79
2023/02/25 09:32:01;;;;;;;7.90;5.90;;;9.10;90.10;;;;;;10469634;28;20191;-78
2023/02/25 09:37:04;;;;;;;2.20;2.00;;;9.10;90.90;;;;;;10467002;28;20216;-77
2023/02/25 09:42:10;;;;;;;5.10;2.13;;;9.00;91.10;;;;;;10464855;28;20675;-77
2023/02/25 09:47:18;;;;;;;2.63;2.30;;;9.00;89.10;;;;;;10451597;28;20227;-77
2023/02/25 09:52:27;;;;;;;2.00;1.90;;;9.20;90.20;;;;;;10465345;28;20197;-77
2023/02/25 09:57:36;;;;;;;1.70;1.60;;;9.60;86.60;;;;;;10492339;28;20220;-77
2023/02/25 10:02:45;;;;;;;2.90;1.70;;;10.00;83.40;;;;;;10477984;28;20279;-76
2023/02/25 10:07:56;;;;;;;2.37;1.77;;;10.30;82.00;;;;;;10448426;28;20220;-77
2023/02/25 10:13:08;;;;;;;2.73;1.70;;;10.40;80.40;;;;;;10469716;28;20208;-76
2023/02/25 10:18:38;;;;;;;2.97;1.90;;;10.60;80.30;;;;;;10435491;28;20222;-76
2023/02/25 10:24:01;;;;;;;2.30;1.90;;;10.70;78.10;;;;;;10488358;28;20288;-78
2023/02/25 10:29:07;;;;;;;2.10;1.50;;;10.70;77.70;;;;;;10473891;28;20595;-77
2023/02/25 10:34:20;;;;;;;3.03;1.63;;;10.80;78.10;;;;;;10439351;28;20721;-77
2023/02/25 10:39:23;;;;;;;1.73;1.63;;;10.80;76.80;;;;;;10472724;28;20244;-75
2023/02/25 10:44:27;;;;;;;1.90;1.80;;;10.70;78.10;;;;;;10438463;28;20207;-76
2023/02/25 10:49:36;;;;;;;2.43;1.70;;;10.50;76.60;;;;;;10490773;28;20211;-81
2023/02/25 10:54:47;;;;;;;2.83;2.20;;;10.40;79.10;;;;;;10448841;28;20201;-78
2023/02/25 11:00:00;;;;;;;5.43;2.37;;;10.40;78.50;;;;;;10455905;28;20740;-79
2023/02/25 11:05:02;;;;;;;4.20;2.07;;;10.40;78.70;;;;;;10444703;28;20679;-78
2023/02/25 11:10:16;;;;;;;3.17;1.73;;;10.40;78.60;;;;;;10493398;28;20213;-77
2023/02/25 11:15:29;;;;;;;1.83;1.73;;;10.50;79.00;;;;;;10486280;28;20280;-79
2023/02/25 11:20:32;;;;;;;2.00;1.63;;;10.40;78.30;;;;;;10455855;28;20220;-80
2023/02/25 11:25:38;;;;;;;4.90;1.80;;;10.30;78.10;;;;;;10498932;28;20189;-79
2023/02/25 11:30:43;;;;;;;2.00;1.90;;;10.30;77.80;;;;;;10439604;28;20708;-79
2023/02/25 11:35:45;;;;;;;2.13;1.70;;;10.40;76.80;;;;;;10493963;28;20297;-80
2023/02/25 11:40:47;;;;;;;3.40;2.60;;;10.50;78.70;;;;;;10457129;28;20222;-79
2023/02/25 11:45:55;;;;;;;4.43;2.40;;;10.40;76.10;;;;;;10499494;28;20201;-78
2023/02/25 11:51:05;;;;;;;2.57;2.37;;;10.30;77.30;;;;;;10472633;28;20196;-79
2023/02/25 11:56:15;;;;;;;4.03;2.43;;;10.10;78.90;;;;;;10467297;28;20193;-80
2023/02/25 12:01:28;;;;;;;2.80;2.57;;;10.10;80.20;;;;;;10507606;28;20754;-80
2023/02/25 12:06:50;;;;;;;2.57;2.07;;;10.20;79.00;;;;;;10470527;28;20206;-80
2023/02/25 12:12:43;;;;;;;2.73;1.90;;;10.30;77.20;;;;;;10485612;28;20678;-80
2023/02/25 12:18:21;;;;;;;2.70;2.20;;;10.40;78.90;;;;;;10422296;28;20221;-79
2023/02/25 12:23:47;;;;;;;3.17;2.13;;;10.60;78.20;;;;;;10484048;28;20267;-79
2023/02/25 12:29:07;;;;;;;2.80;2.07;;;10.60;78.10;;;;;;10489744;28;20592;-80
2023/02/25 12:34:34;;;;;;;3.30;2.27;;;10.50;77.30;;;;;;10479377;28;20199;-79
2023/02/25 12:39:58;;;;;;;4.57;2.50;;;10.40;78.10;;;;;;10473095;28;20224;-80
2023/02/25 12:45:33;;;;;;;2.23;2.13;;;10.40;79.70;;;;;;10517520;28;20209;-81
2023/02/25 12:51:10;;;;;;;4.53;2.80;;;10.30;79.00;;;;;;10515945;28;20280;-81
2023/02/25 12:56:52;;;;;;;4.37;2.40;;;10.20;79.10;;;;;;10486680;28;20239;-81
2023/02/25 13:09:03;;;;;;;2.80;2.50;;;9.80;87.20;;;;;;10485596;28;20220;-80
2023/02/25 13:14:39;;;;;;;3.67;2.50;;;9.80;89.80;;;;;;10502790;28;20194;-78
2023/02/25 13:20:32;;;;;;;6.27;3.00;;;9.70;90.50;;;;;;10511955;28;20205;-75
2023/02/25 13:26:03;;;;;;;3.97;3.17;;;9.60;90.60;;;;;;10417625;28;20547;-80
2023/02/25 13:31:13;;;;;;;6.60;2.73;;;9.60;90.00;;;;;;10510033;28;20185;-78
2023/02/25 13:36:32;;;;;;;3.17;2.77;;;9.60;90.60;;;;;;10501101;28;20819;-78
2023/02/25 13:41:51;;;;;;;3.87;2.63;;;9.70;90.40;;;;;;10528920;28;20220;-81
2023/02/25 13:47:09;;;;;;;3.80;2.33;;;9.70;90.00;;;;;;10489940;28;20232;-79
2023/02/25 13:52:28;;;;;;;2.43;2.23;;;9.70;90.40;;;;;;10533368;28;20192;-78
2023/02/25 13:57:46;;;;;;;2.70;2.50;;;9.70;90.40;;;;;;10529764;28;20250;-80
2023/02/25 14:03:14;;;;;;;3.80;2.70;;;9.70;89.60;;;;;;10505811;28;20220;-77
2023/02/25 14:08:33;;;;;;;3.70;2.10;;;9.60;88.40;;;;;;10454661;28;20297;-79
2023/02/25 14:14:02;;;;;;;2.97;2.23;;;9.40;86.30;;;;;;10476262;28;20224;-76
2023/02/25 14:19:29;;;;;;;6.90;2.97;;;9.30;85.40;;;;;;10442354;28;20852;-77
2023/02/25 14:24:38;;;;;;;6.00;3.20;;;9.20;85.30;;;;;;10469465;28;20567;-77
2023/02/25 14:29:53;;;;;;;4.40;2.50;;;9.10;84.70;;;;;;10501871;23;20260;-84
2023/02/25 14:35:15;;;;;;;4.03;2.80;;;9.00;86.10;;;;;;10505069;28;20201;-82
2023/02/25 14:40:27;;;;;;;3.93;2.83;;;9.20;83.80;;;;;;10529618;28;20225;-82
2023/02/25 14:45:34;;;;;;;5.63;2.10;;;9.30;83.70;;;;;;10501880;28;20670;-83
2023/02/25 14:50:45;;;;;;;5.00;2.90;;;9.40;83.20;;;;;;10528143;28;20403;-83
2023/02/25 14:56:26;;;;;;;3.43;2.43;;;9.50;84.70;;;;;;10496237;28;20235;-84
2023/02/25 15:01:47;;;;;;;5.47;2.60;;;9.60;82.80;;;;;;10502755;28;20722;-82
2023/02/25 15:07:03;;;;;;;4.77;3.63;;;9.60;84.20;;;;;;10509743;28;20223;-83
2023/02/25 15:12:19;;;;;;;9.00;3.70;;;9.50;81.70;;;;;;10526483;28;20223;-81
2023/02/25 15:17:49;;;;;;;5.07;2.73;;;9.50;83.00;;;;;;10491934;28;20216;-78
2023/02/25 15:23:05;;;;;;;4.27;2.67;;;9.50;82.20;;;;;;10516909;28;20215;-80
2023/02/25 15:28:37;;;;;;;5.37;2.93;;;9.40;82.40;;;;;;10479281;28;20719;-79
2023/02/25 15:33:41;;;;;;;4.90;2.30;;;9.40;82.80;;;;;;10540754;28;20199;-80
2023/02/25 15:38:46;;;;;;;6.00;2.13;;;9.50;81.80;;;;;;10489356;28;20217;-80
2023/02/25 15:43:49;;;;;;;4.07;2.30;;;9.50;81.30;;;;;;10501228;28;20221;-80
2023/02/25 15:49:04;;;;;;;3.67;2.70;;;9.50;80.90;;;;;;10529902;28;20219;-81
2023/02/25 15:54:08;;;;;;;6.50;3.43;;;9.50;82.60;;;;;;10499797;28;20198;-81
2023/02/25 15:59:12;;;;;;;6.50;2.97;;;9.50;82.20;;;;;;10511519;28;20217;-81
2023/02/25 16:04:44;;;;;;;5.10;2.30;;;9.50;82.00;;;;;;10504843;28;20335;-80
2023/02/25 16:09:52;;;;;;;7.00;3.40;;;9.50;81.40;;;;;;10521313;28;20271;-79
2023/02/25 16:14:57;;;;;;;5.40;3.00;;;9.40;83.80;;;;;;10508797;28;20291;-80
2023/02/25 16:20:07;;;;;;;3.80;2.80;;;9.30;89.10;;;;;;10485553;28;20217;-81
2023/02/25 16:25:15;;;;;;;6.13;3.23;;;9.10;92.00;;;;;;10498847;28;20207;-80
2023/02/25 16:30:22;;;;;;;4.13;3.50;;;8.80;93.20;;;;;;10508808;28;20240;-80
2023/02/25 16:35:30;;;;;;;4.67;2.83;;;8.60;94.50;;;;;;10491041;28;20612;-81
2023/02/25 16:40:37;;;;;;;6.83;4.00;;;8.50;95.00;;;;;;10466914;28;20303;-80
2023/02/25 16:45:43;;;;;;;11.27;4.83;;;8.40;95.10;;;;;;10506799;28;20291;-81
2023/02/25 16:50:49;;;;;;;6.67;5.30;;;8.40;95.20;;;;;;10512179;28;20603;-82
2023/02/25 16:55:58;;;;;;;6.77;4.20;;;8.40;95.20;;;;;;10529327;28;20229;-82
2023/02/25 17:01:02;;;;;;;9.43;4.40;;;8.40;95.40;;;;;;10506974;28;20217;-82
2023/02/25 17:06:07;;;;;;;8.87;5.00;;;8.40;94.60;;;;;;10514469;28;20665;-81
2023/02/25 17:11:12;;;;;;;7.90;5.07;;;8.40;94.50;;;;;;10492379;28;20250;-81
2023/02/25 17:16:18;;;;;;;10.00;5.87;;;8.40;94.70;;;;;;10554184;28;20193;-82
2023/02/25 17:21:25;;;;;;;8.50;4.77;;;8.40;94.50;;;;;;10548951;28;20219;-82
2023/02/25 17:26:29;;;;;;;7.00;4.77;;;8.40;94.60;;;;;;10502964;28;20209;-83
2023/02/25 17:31:43;;;;;;;7.70;4.70;;;8.30;94.40;;;;;;10510254;28;20759;-82
2023/02/25 17:36:46;;;;;;;6.90;4.37;;;8.30;93.80;;;;;;10437073;28;20239;-84
2023/02/25 17:41:50;;;;;;;5.93;2.83;;;8.30;94.30;;;;;;10517829;28;20220;-82
2023/02/25 17:46:52;;;;;;;2.73;2.40;;;8.30;93.30;;;;;;10506348;28;20222;-82
2023/02/25 17:51:58;;;;;;;2.83;2.37;;;8.00;94.10;;;;;;10545767;28;20200;-83
2023/02/25 17:57:07;;;;;;;3.13;2.90;;;7.50;95.00;;;;;;10447177;28;20220;-82
2023/02/25 18:02:32;;;;;;;3.03;2.83;;;7.00;96.60;;;;;;10454428;28;20238;-84
2023/02/25 18:07:36;;;;;;;3.50;3.30;;;6.70;97.60;;;;;;10508210;28;20216;-82
2023/02/25 18:12:40;;;;;;;3.10;2.93;;;6.20;97.30;;;;;;10541140;28;20259;-82
2023/02/25 18:17:54;;;;;;;3.87;3.60;;;5.90;98.70;;;;;;10512769;28;20240;-82
2023/02/25 18:23:01;;;;;;;3.93;3.63;;;5.70;99.90;;;;;;10494443;28;20219;-81
2023/02/25 18:28:07;;;;;;;4.93;4.47;;;5.70;99.90;;;;;;10506142;28;20223;-83
2023/02/25 18:33:10;;;;;;;4.70;4.40;;;5.70;99.90;;;;;;10526593;28;20194;-82
2023/02/25 18:38:18;;;;;;;5.23;4.77;;;5.80;99.90;;;;;;10554031;28;20297;-82
2023/02/25 18:43:29;;;;;;;4.97;4.63;;;5.80;99.90;;;;;;10494162;28;20239;-82
2023/02/25 18:48:31;;;;;;;5.00;4.60;;;5.80;99.90;;;;;;10552618;28;20232;-82
2023/02/25 18:53:34;;;;;;;5.50;4.53;;;5.80;99.90;;;;;;10481400;28;20206;-82
2023/02/25 18:58:37;;;;;;;4.80;4.43;;;5.80;99.90;;;;;;10484230;28;20218;-81
2023/02/25 19:03:39;;;;;;;7.10;6.60;;;5.80;99.90;;;;;;10505530;28;20244;-80
2023/02/25 19:08:42;;;;;;;7.30;6.80;;;5.80;99.90;;;;;;10535085;28;20220;-81
2023/02/25 19:13:45;;;;;;;6.97;6.30;;;5.70;99.90;;;;;;10503221;28;20207;-80
2023/02/25 19:18:47;;;;;;;7.73;7.13;;;5.70;99.90;;;;;;10507236;28;20222;-81
2023/02/25 19:23:52;;;;;;;7.80;7.13;;;5.70;99.90;;;;;;10519429;28;20272;-81
2023/02/25 19:28:55;;;;;;;6.97;6.57;;;5.70;99.90;;;;;;10497755;28;20584;-80
2023/02/25 19:33:57;;;;;;;7.97;6.77;;;5.70;99.90;;;;;;10523836;28;20583;-79
2023/02/25 19:39:00;;;;;;;7.20;5.80;;;5.70;99.90;;;;;;10521563;28;20241;-81
2023/02/25 19:44:03;;;;;;;10.10;9.20;;;5.70;99.90;;;;;;10505767;28;20213;-79
2023/02/25 19:49:05;;;;;;;6.50;6.00;;;5.70;99.90;;;;;;10511178;28;20221;-80
2023/02/25 19:54:07;;;;;;;8.40;7.57;;;5.70;99.90;;;;;;10481991;28;20216;-81
2023/02/25 19:59:11;;;;;;;8.10;7.40;;;5.70;99.90;;;;;;10516587;28;20214;-78
2023/02/25 20:04:13;;;;;;;8.10;7.50;;;5.70;99.90;;;;;;10507901;28;20247;-80
2023/02/25 20:09:15;;;;;;;23.60;18.43;;;5.70;99.90;;;;;;10485217;28;20216;-80
2023/02/25 20:14:19;;;;;;;6.80;6.30;;;5.70;99.90;;;;;;10564024;28;20273;-81
2023/02/25 20:19:22;;;;;;;7.27;6.73;;;5.70;99.90;;;;;;10491963;28;20227;-78
2023/02/25 20:24:25;;;;;;;7.67;6.93;;;5.70;99.90;;;;;;10440212;28;20317;-78
2023/02/25 20:29:28;;;;;;;7.10;6.40;;;5.80;99.90;;;;;;10511454;22;20725;-83
2023/02/25 20:34:31;;;;;;;6.80;6.20;;;5.90;99.90;;;;;;10491478;28;20271;-82
2023/02/25 20:39:48;;;;;;;6.47;5.87;;;5.90;99.90;;;;;;10491349;28;20238;-83
2023/02/25 20:44:52;;;;;;;5.93;5.47;;;6.00;99.90;;;;;;10507900;28;20242;-84
2023/02/25 20:49:56;;;;;;;7.50;4.83;;;6.00;99.90;;;;;;10490966;28;20222;-82
2023/02/25 20:54:59;;;;;;;6.27;4.90;;;6.00;99.90;;;;;;10472517;28;20203;-83
2023/02/25 21:00:04;;;;;;;4.47;4.07;;;6.00;99.80;;;;;;10473377;28;20219;-85
2023/02/25 21:05:08;;;;;;;5.90;3.83;;;6.00;99.70;;;;;;10517395;28;20224;-82
2023/02/25 21:10:11;;;;;;;5.23;4.73;;;6.00;98.00;;;;;;10438949;28;20376;-80
2023/02/25 21:15:14;;;;;;;4.90;3.93;;;6.00;99.00;;;;;;10457510;28;20189;-82
2023/02/25 21:20:16;;;;;;;5.37;3.80;;;6.00;98.90;;;;;;10467963;28;20236;-81
2023/02/25 21:25:18;;;;;;;5.33;4.00;;;6.00;98.30;;;;;;10507975;28;20215;-82
2023/02/25 21:30:22;;;;;;;5.63;3.47;;;6.00;98.60;;;;;;10490642;28;20269;-82
2023/02/25 21:35:25;;;;;;;3.63;3.33;;;6.00;97.60;;;;;;10472130;28;20182;-83
2023/02/25 21:40:27;;;;;;;3.77;3.47;;;6.00;97.10;;;;;;10451967;28;20232;-82
2023/02/25 21:45:31;;;;;;;4.93;3.50;;;6.00;96.80;;;;;;10438561;28;20272;-82
2023/02/25 21:50:33;;;;;;;3.47;3.17;;;5.90;97.20;;;;;;10476256;28;20221;-84
2023/02/25 21:55:35;;;;;;;3.60;3.27;;;5.90;96.40;;;;;;10479691;28;20672;-80
2023/02/25 22:00:39;;;;;;;3.53;3.23;;;5.80;96.20;;;;;;10458629;28;20240;-81
2023/02/25 22:05:45;;;;;;;3.10;2.90;;;5.80;96.20;;;;;;10444696;28;20199;-81
2023/02/25 22:10:47;;;;;;;3.00;2.70;;;5.80;95.90;;;;;;10482979;28;20220;-82
2023/02/25 22:15:50;;;;;;;2.60;2.40;;;5.80;95.50;;;;;;10466349;28;20192;-83
2023/02/25 22:20:53;;;;;;;2.90;2.70;;;5.80;94.80;;;;;;10444971;28;20344;-84
2023/02/25 22:25:55;;;;;;;2.97;2.77;;;5.80;95.00;;;;;;10447887;28;20230;-83
2023/02/25 22:30:58;;;;;;;3.13;2.93;;;5.80;94.60;;;;;;10433239;28;20250;-83
2023/02/25 22:36:03;;;;;;;4.10;3.10;;;5.70;94.50;;;;;;10432681;28;20263;-83
2023/02/25 22:41:06;;;;;;;3.03;2.73;;;5.70;94.90;;;;;;10481368;28;20273;-83
2023/02/25 22:46:11;;;;;;;3.30;3.00;;;5.60;94.30;;;;;;10486666;28;20204;-84
2023/02/25 22:51:19;;;;;;;3.00;2.80;;;5.60;94.50;;;;;;10470568;28;20231;-83
2023/02/25 22:56:22;;;;;;;3.60;3.20;;;5.60;94.90;;;;;;10456945;28;20634;-83
2023/02/25 23:01:26;;;;;;;2.70;2.50;;;5.70;95.00;;;;;;10492490;28;20209;-83
2023/02/25 23:06:30;;;;;;;3.03;2.73;;;5.70;94.70;;;;;;10479128;28;20189;-84
2023/02/25 23:11:34;;;;;;;4.50;3.37;;;5.70;94.40;;;;;;10447225;28;20226;-82
2023/02/25 23:16:40;;;;;;;3.23;3.03;;;5.70;93.30;;;;;;10445338;28;20563;-83
2023/02/25 23:21:42;;;;;;;7.30;5.80;;;5.60;93.80;;;;;;10460975;28;20250;-83
2023/02/25 23:26:46;;;;;;;3.47;3.20;;;5.60;94.30;;;;;;10499740;28;20499;-82
2023/02/25 23:31:50;;;;;;;3.73;3.40;;;5.50;94.90;;;;;;10464519;28;20221;-82
2023/02/25 23:36:55;;;;;;;3.53;3.13;;;5.60;94.40;;;;;;10465805;28;20194;-82
2023/02/25 23:41:58;;;;;;;3.67;3.37;;;5.70;93.80;;;;;;10447357;28;20207;-83
2023/02/25 23:47:01;;;;;;;3.60;3.27;;;5.70;94.20;;;;;;10481425;28;20227;-80
2023/02/25 23:52:04;;;;;;;3.03;2.70;;;5.70;93.20;;;;;;10489525;28;20237;-82
2023/02/25 23:57:07;;;;;;;4.00;3.50;;;5.70;93.80;;;;;;10492117;28;20257;-82
